Time;durP1;ratioP1;P1;durP2;ratioP2;P2;SDS_P1;SDS_P2;PMS_P1;PMS_P2;Temp;Humidity;BMP_temperature;BMP_pressure;BME280_temperature;BME280_humidity;BME280_pressure;Samples;Min_cycle;Max_cycle;Signal;HPM_P1;HPM_P2
2024/04/06 00:01:30;;;;;;;4.22;2.30;;;;;;;15.23;100.00;101022.31;5069277;28;20221;-67
2024/04/06 00:04:17;;;;;;;4.95;2.38;;;;;;;15.21;100.00;101027.28;5070557;27;20500;-68
2024/04/06 00:07:04;;;;;;;4.95;2.63;;;;;;;15.19;100.00;101018.50;5098257;28;20047;-69
2024/04/06 00:09:51;;;;;;;6.32;2.60;;;;;;;15.17;100.00;101020.72;5084512;28;20077;-67
2024/04/06 00:12:38;;;;;;;6.70;2.33;;;;;;;15.16;100.00;101027.34;5083884;28;20460;-67
2024/04/06 00:15:25;;;;;;;5.80;2.53;;;;;;;15.14;100.00;101015.84;5083855;28;20047;-67
2024/04/06 00:18:12;;;;;;;6.22;2.53;;;;;;;15.13;100.00;101030.69;5077341;28;20181;-69
2024/04/06 00:20:59;;;;;;;6.90;2.47;;;;;;;15.13;100.00;101033.44;5078713;28;20416;-68
2024/04/06 00:23:46;;;;;;;7.35;2.70;;;;;;;15.12;100.00;101029.03;5050783;28;20147;-68
2024/04/06 00:26:33;;;;;;;5.43;2.38;;;;;;;15.12;100.00;101031.78;5056228;28;20515;-69
2024/04/06 00:29:20;;;;;;;5.03;2.60;;;;;;;15.11;100.00;101041.13;5066210;28;20094;-67
2024/04/06 00:32:07;;;;;;;4.50;2.35;;;;;;;15.12;100.00;101037.28;5092085;28;20048;-68
2024/04/06 00:34:54;;;;;;;3.80;2.35;;;;;;;15.11;100.00;101030.16;5059119;28;20048;-68
2024/04/06 00:37:41;;;;;;;8.52;3.15;;;;;;;15.10;100.00;101036.75;5102053;27;20100;-69
2024/04/06 00:40:28;;;;;;;5.80;2.70;;;;;;;15.08;100.00;101038.97;5091022;27;20130;-68
2024/04/06 00:43:15;;;;;;;6.07;2.53;;;;;;;15.06;100.00;101033.78;5089942;28;20039;-68
2024/04/06 00:46:02;;;;;;;4.60;2.53;;;;;;;15.05;100.00;101036.81;5098802;28;20079;-68
2024/04/06 00:48:51;;;;;;;7.28;3.00;;;;;;;15.04;100.00;101043.41;5070945;28;20108;-67
2024/04/06 00:51:38;;;;;;;6.22;2.78;;;;;;;15.02;100.00;101043.69;5068619;28;20102;-68
2024/04/06 00:54:25;;;;;;;6.82;2.92;;;;;;;14.99;100.00;101032.50;5068437;28;20131;-68
2024/04/06 00:57:12;;;;;;;5.55;2.63;;;;;;;14.96;100.00;101044.03;5098196;28;20088;-68
2024/04/06 00:59:59;;;;;;;6.70;2.30;;;;;;;14.95;100.00;101042.41;5097894;28;20040;-68
2024/04/06 01:02:46;;;;;;;6.78;2.70;;;;;;;14.93;100.00;101039.16;5079074;27;20088;-68
2024/04/06 01:05:33;;;;;;;5.85;2.80;;;;;;;14.90;100.00;101044.09;5089899;27;20050;-69
2024/04/06 01:08:20;;;;;;;8.50;2.90;;;;;;;14.89;100.00;101045.22;5063297;28;20052;-69
2024/04/06 01:11:07;;;;;;;5.80;2.70;;;;;;;14.90;100.00;101046.03;5078524;28;20048;-68
2024/04/06 01:13:54;;;;;;;6.50;2.55;;;;;;;14.88;100.00;101034.53;5094517;28;20130;-68
2024/04/06 01:16:42;;;;;;;6.95;2.63;;;;;;;14.87;100.00;101039.22;5085779;27;20070;-68
2024/04/06 01:19:29;;;;;;;5.63;2.50;;;;;;;14.84;100.00;101039.81;5078189;28;20130;-67
2024/04/06 01:22:16;;;;;;;5.95;2.58;;;;;;;14.83;100.00;101040.09;5068581;28;20090;-68
2024/04/06 01:25:04;;;;;;;5.88;2.90;;;;;;;14.81;100.00;101040.38;5096551;28;20047;-68
2024/04/06 01:27:51;;;;;;;5.72;2.60;;;;;;;14.81;100.00;101032.13;5086243;28;20392;-67
2024/04/06 01:30:38;;;;;;;5.32;2.65;;;;;;;14.80;100.00;101029.69;5097667;28;20118;-68
2024/04/06 01:33:25;;;;;;;5.20;2.60;;;;;;;14.80;100.00;101032.44;5075401;28;20074;-67
2024/04/06 01:36:12;;;;;;;6.70;2.75;;;;;;;14.81;100.00;101026.66;5075007;28;20056;-66
2024/04/06 01:38:59;;;;;;;5.65;2.53;;;;;;;14.82;100.00;101022.00;5096778;28;20047;-68
2024/04/06 01:41:47;;;;;;;6.88;2.90;;;;;;;14.82;100.00;101022.81;5083476;28;20055;-68
2024/04/06 01:44:34;;;;;;;6.00;2.70;;;;;;;14.81;100.00;101026.66;5097544;28;20141;-68
2024/04/06 01:47:21;;;;;;;5.25;2.72;;;;;;;14.82;100.00;101032.97;5096760;28;20055;-68
2024/04/06 01:50:09;;;;;;;6.72;3.20;;;;;;;14.82;100.00;101028.31;5064146;28;20079;-69
2024/04/06 01:52:56;;;;;;;6.72;3.03;;;;;;;14.79;100.00;101028.88;5092857;28;20530;-69
2024/04/06 01:55:43;;;;;;;7.93;3.28;;;;;;;14.77;100.00;101038.50;5083352;28;20047;-69
2024/04/06 01:58:30;;;;;;;5.82;2.50;;;;;;;14.75;100.00;101032.50;5084173;28;20052;-69
2024/04/06 02:01:17;;;;;;;3.83;2.53;;;;;;;14.75;100.00;101038.78;5097399;28;20043;-69
2024/04/06 02:04:04;;;;;;;7.25;2.70;;;;;;;14.73;100.00;101023.75;5083336;28;20430;-69
2024/04/06 02:06:51;;;;;;;5.85;2.47;;;;;;;14.70;100.00;101008.69;5097438;28;20078;-68
2024/04/06 02:09:38;;;;;;;6.05;2.53;;;;;;;14.69;100.00;101007.03;5095323;28;20044;-68
2024/04/06 02:12:25;;;;;;;4.30;2.63;;;;;;;14.66;100.00;101022.16;5062598;28;20051;-68
2024/04/06 02:15:12;;;;;;;5.68;2.47;;;;;;;14.66;100.00;101013.13;5077337;28;20088;-68
2024/04/06 02:18:00;;;;;;;6.18;2.40;;;;;;;14.64;100.00;101004.34;5075916;28;20048;-68
2024/04/06 02:20:47;;;;;;;6.53;2.58;;;;;;;14.64;100.00;101005.16;5076063;28;20039;-69
2024/04/06 02:23:34;;;;;;;6.78;2.80;;;;;;;14.66;100.00;101008.44;5063702;28;20052;-68
2024/04/06 02:26:21;;;;;;;6.10;2.60;;;;;;;14.62;100.00;101007.41;5081769;28;20055;-69
2024/04/06 02:29:08;;;;;;;5.97;2.60;;;;;;;14.63;100.00;101014.50;5084558;28;20141;-67
2024/04/06 02:31:57;;;;;;;5.47;2.67;;;;;;;14.62;100.00;101018.38;5096439;28;20043;-68
2024/04/06 02:34:44;;;;;;;4.50;2.53;;;;;;;14.60;100.00;101015.09;5091175;28;20044;-68
2024/04/06 02:37:31;;;;;;;5.28;2.50;;;;;;;14.61;100.00;101016.72;5049476;28;20079;-67
2024/04/06 02:40:18;;;;;;;8.98;3.17;;;;;;;14.63;100.00;101019.19;5063753;28;20356;-68
2024/04/06 02:43:05;;;;;;;4.18;2.58;;;;;;;14.64;100.00;101015.31;5082413;28;20051;-67
2024/04/06 02:45:52;;;;;;;6.40;2.55;;;;;;;14.62;100.00;101023.03;5083050;28;20039;-68
2024/04/06 02:48:39;;;;;;;5.35;2.33;;;;;;;14.61;100.00;101026.88;5083420;28;20093;-68
2024/04/06 02:51:27;;;;;;;6.18;2.45;;;;;;;14.61;100.00;101015.91;5082626;28;20052;-67
2024/04/06 02:54:14;;;;;;;10.40;2.65;;;;;;;14.60;100.00;101006.03;5075797;28;20412;-68
2024/04/06 02:57:01;;;;;;;5.47;2.40;;;;;;;14.59;100.00;101001.66;5079337;28;20155;-67
2024/04/06 02:59:49;;;;;;;5.10;2.55;;;;;;;14.54;100.00;100988.00;5086537;28;20105;-67
2024/04/06 03:02:36;;;;;;;6.10;2.78;;;;;;;14.49;100.00;101002.56;5085359;28;20471;-68
2024/04/06 03:05:23;;;;;;;5.15;2.40;;;;;;;14.47;100.00;100994.63;5098674;28;20130;-68
2024/04/06 03:08:11;;;;;;;5.95;2.42;;;;;;;14.48;100.00;100993.53;5086047;28;20050;-67
2024/04/06 03:10:58;;;;;;;8.43;2.60;;;;;;;14.49;100.00;100992.41;5085196;28;20130;-67
2024/04/06 03:13:45;;;;;;;5.50;2.60;;;;;;;14.50;100.00;100995.97;5091099;28;20063;-68
2024/04/06 03:16:32;;;;;;;5.40;2.50;;;;;;;14.49;100.00;100986.91;5052933;28;20051;-70
2024/04/06 03:19:19;;;;;;;7.05;3.08;;;;;;;14.48;100.00;100990.78;5079527;28;20044;-68
2024/04/06 03:22:07;;;;;;;4.43;2.55;;;;;;;14.44;100.00;100978.75;5059546;28;20048;-69
2024/04/06 03:24:54;;;;;;;6.47;2.85;;;;;;;14.40;100.00;100974.94;5072988;28;20090;-69
2024/04/06 03:27:41;;;;;;;4.90;2.58;;;;;;;14.38;100.00;100960.75;5065001;28;20074;-68
2024/04/06 03:30:28;;;;;;;5.93;2.70;;;;;;;14.37;100.00;100950.88;5064946;28;20093;-70
2024/04/06 03:33:15;;;;;;;6.55;2.70;;;;;;;14.38;100.00;100946.19;5083332;27;20043;-69
2024/04/06 03:36:02;;;;;;;5.43;2.80;;;;;;;14.37;100.00;100939.09;5071429;28;20040;-69
2024/04/06 03:38:49;;;;;;;7.55;2.80;;;;;;;14.37;100.00;100956.34;5100112;28;20052;-69
2024/04/06 03:41:36;;;;;;;4.68;2.70;;;;;;;14.39;100.00;100965.09;5084948;28;20107;-69
2024/04/06 03:44:23;;;;;;;6.25;2.78;;;;;;;14.40;100.00;100966.72;5079505;28;20127;-69
2024/04/06 03:47:10;;;;;;;6.40;2.72;;;;;;;14.41;100.00;100970.31;5079666;28;20085;-69
2024/04/06 03:49:57;;;;;;;6.70;2.92;;;;;;;14.40;100.00;100983.19;5071287;28;20076;-70
2024/04/06 03:52:45;;;;;;;4.53;2.58;;;;;;;14.41;100.00;100981.28;5107309;28;20111;-69
2024/04/06 03:55:32;;;;;;;5.68;2.60;;;;;;;14.41;100.00;100979.34;5088074;27;20495;-69
2024/04/06 03:58:19;;;;;;;6.05;2.70;;;;;;;14.40;100.00;100977.69;5067879;28;20067;-66
2024/04/06 04:01:06;;;;;;;5.97;2.97;;;;;;;14.41;100.00;100979.34;5102025;28;20055;-69
2024/04/06 04:03:53;;;;;;;6.97;3.25;;;;;;;14.40;100.00;100974.94;5115774;28;20041;-68
2024/04/06 04:06:40;;;;;;;8.80;3.33;;;;;;;14.39;100.00;100969.78;5099968;28;20128;-69
2024/04/06 04:09:27;;;;;;;7.05;3.70;;;;;;;14.39;100.00;100969.78;5099043;28;20047;-69
2024/04/06 04:12:14;;;;;;;8.05;3.40;;;;;;;14.37;100.00;100969.25;5098542;28;20067;-69
2024/04/06 04:15:03;;;;;;;7.10;3.78;;;;;;;14.34;100.00;100967.91;5086776;27;20078;-70
2024/04/06 04:17:51;;;;;;;6.32;2.97;;;;;;;14.32;100.00;100970.13;5075074;28;20550;-68
2024/04/06 04:20:38;;;;;;;4.43;3.00;;;;;;;14.31;100.00;100962.16;5097930;28;20071;-68
2024/04/06 04:23:26;;;;;;;6.28;3.15;;;;;;;14.30;100.00;100958.63;5081808;28;20063;-70
2024/04/06 04:26:12;;;;;;;6.50;3.13;;;;;;;14.29;100.00;100973.44;5103675;27;20440;-69
2024/04/06 04:28:59;;;;;;;7.53;3.30;;;;;;;14.28;100.00;100963.56;5104823;27;20117;-68
2024/04/06 04:31:47;;;;;;;8.20;3.75;;;;;;;14.27;100.00;100957.28;5111531;27;20039;-68
2024/04/06 04:34:34;;;;;;;7.25;3.72;;;;;;;14.27;100.00;100957.28;5050134;28;20488;-68
2024/04/06 04:37:21;;;;;;;7.60;3.63;;;;;;;14.29;100.00;100959.72;5100306;27;20095;-67
2024/04/06 04:40:09;;;;;;;6.18;3.50;;;;;;;14.30;100.00;100966.03;5118820;27;20078;-67
2024/04/06 04:42:56;;;;;;;8.52;4.43;;;;;;;14.31;100.00;100956.69;5081026;28;20549;-68
2024/04/06 04:45:43;;;;;;;8.40;4.15;;;;;;;14.30;100.00;100955.88;5077407;28;20053;-70
2024/04/06 04:48:51;;;;;;;7.30;3.85;;;;;;;14.31;100.00;100953.94;5097720;27;20125;-68
2024/04/06 04:51:38;;;;;;;11.80;3.90;;;;;;;14.30;100.00;100947.66;5081779;28;20059;-69
2024/04/06 04:54:25;;;;;;;7.50;3.92;;;;;;;14.30;100.00;100942.16;5070559;28;20067;-67
2024/04/06 04:57:12;;;;;;;6.70;3.58;;;;;;;14.30;100.00;100925.72;5099494;27;20094;-69
2024/04/06 04:59:59;;;;;;;9.90;4.35;;;;;;;14.28;100.00;100933.41;5056879;28;20480;-68
2024/04/06 05:02:46;;;;;;;6.45;3.30;;;;;;;14.27;100.00;100923.56;5097623;28;20414;-68
2024/04/06 05:05:34;;;;;;;10.02;3.65;;;;;;;14.24;100.00;100924.16;5083971;28;20085;-68
2024/04/06 05:08:21;;;;;;;8.30;3.28;;;;;;;14.24;100.00;100924.16;5091203;28;20040;-69
2024/04/06 05:11:08;;;;;;;8.57;3.30;;;;;;;14.26;100.00;100910.97;5062729;28;20123;-68
2024/04/06 05:13:56;;;;;;;7.88;3.38;;;;;;;14.24;100.00;100902.25;5077105;28;20389;-69
2024/04/06 05:16:45;;;;;;;6.32;3.40;;;;;;;14.17;100.00;100901.75;5082137;28;20132;-69
2024/04/06 05:19:32;;;;;;;8.82;3.72;;;;;;;14.12;100.00;100915.50;5079184;28;20279;-68
2024/04/06 05:22:19;;;;;;;9.43;3.75;;;;;;;14.06;100.00;100912.81;5098199;28;20459;-69
2024/04/06 05:25:06;;;;;;;8.55;3.83;;;;;;;14.05;100.00;100922.16;5083775;28;20055;-69
2024/04/06 05:27:53;;;;;;;8.73;3.92;;;;;;;14.10;100.00;100924.03;5053187;28;20132;-69
2024/04/06 05:30:40;;;;;;;7.53;3.55;;;;;;;14.12;100.00;100926.44;5086476;27;20043;-69
2024/04/06 05:33:27;;;;;;;8.70;3.35;;;;;;;14.15;100.00;100926.69;5072317;28;20378;-70
2024/04/06 05:36:16;;;;;;;8.45;3.60;;;;;;;14.17;100.00;100938.19;5063930;28;20051;-69
2024/04/06 05:39:05;;;;;;;7.80;3.22;;;;;;;14.17;100.00;100942.88;5085342;28;20075;-70
2024/04/06 05:41:53;;;;;;;9.25;3.45;;;;;;;14.19;100.00;100941.47;5068728;28;20040;-69
2024/04/06 05:44:40;;;;;;;8.23;3.20;;;;;;;14.18;100.00;100923.38;5032480;28;20099;-69
2024/04/06 05:47:28;;;;;;;12.95;3.47;;;;;;;14.21;100.00;100900.88;5085546;28;20050;-68
2024/04/06 05:50:16;;;;;;;7.68;3.28;;;;;;;14.19;100.00;100902.25;4391963;28;9999890;-71
2024/04/06 05:53:04;;;;;;;6.10;2.92;;;;;;;14.17;100.00;100907.25;5072837;28;20048;-71
2024/04/06 05:55:51;;;;;;;9.32;3.28;;;;;;;14.17;100.00;100912.72;5093328;28;20082;-70
2024/04/06 05:58:39;;;;;;;5.70;3.08;;;;;;;14.18;100.00;100919.81;5060887;28;20048;-71
2024/04/06 06:01:27;;;;;;;8.77;3.15;;;;;;;14.19;100.00;100926.94;5052590;28;20075;-71
2024/04/06 06:04:14;;;;;;;7.28;3.45;;;;;;;14.22;100.00;100913.47;5078327;28;20067;-71
2024/04/06 06:07:01;;;;;;;7.40;3.13;;;;;;;14.23;100.00;100911.53;5088709;28;20468;-70
2024/04/06 06:09:48;;;;;;;6.90;3.17;;;;;;;14.23;100.00;100906.06;5065269;28;20051;-72
2024/04/06 06:12:35;;;;;;;6.47;3.15;;;;;;;14.21;100.00;100903.59;5086222;28;20448;-69
2024/04/06 06:15:22;;;;;;;5.25;2.70;;;;;;;14.23;100.00;100900.59;5077173;28;20043;-71
2024/04/06 06:18:09;;;;;;;5.10;3.05;;;;;;;14.22;100.00;100899.78;5090546;28;20047;-70
2024/04/06 06:20:56;;;;;;;7.43;2.83;;;;;;;14.25;100.00;100898.38;5071821;28;20494;-71
2024/04/06 06:23:43;;;;;;;6.47;3.08;;;;;;;14.26;100.00;100891.78;5074646;28;20050;-71
2024/04/06 06:26:30;;;;;;;7.90;3.15;;;;;;;14.27;100.00;100896.16;5090342;28;20142;-70
2024/04/06 06:29:17;;;;;;;6.07;2.97;;;;;;;14.30;100.00;100897.50;5076173;28;20040;-73
2024/04/06 06:32:05;;;;;;;6.80;2.80;;;;;;;14.31;100.00;100899.13;5065545;28;20040;-72
2024/04/06 06:34:52;;;;;;;6.60;2.88;;;;;;;14.31;100.00;100908.19;5084495;28;20150;-72
2024/04/06 06:37:39;;;;;;;8.43;3.00;;;;;;;14.33;100.00;100914.16;5094097;28;20076;-69
2024/04/06 06:40:26;;;;;;;7.90;3.17;;;;;;;14.33;100.00;100914.16;5093014;28;20116;-74
2024/04/06 06:43:13;;;;;;;5.82;3.00;;;;;;;14.33;100.00;100916.91;5063683;28;20047;-71
2024/04/06 06:46:01;;;;;;;8.63;3.03;;;;;;;14.35;100.00;100909.22;5066158;28;20067;-72
2024/04/06 06:48:48;;;;;;;6.32;3.30;;;;;;;14.37;100.00;100909.75;5093965;28;20040;-71
2024/04/06 06:51:35;;;;;;;8.88;3.15;;;;;;;14.38;100.00;100908.66;5072820;28;20390;-71
2024/04/06 06:54:22;;;;;;;8.38;2.78;;;;;;;14.42;100.00;100904.19;5093620;28;20196;-70
2024/04/06 06:57:09;;;;;;;7.65;2.85;;;;;;;14.43;100.00;100905.84;5094589;28;20050;-70
2024/04/06 06:59:56;;;;;;;6.03;2.90;;;;;;;14.46;100.00;100902.53;5094814;28;20499;-69
2024/04/06 07:02:44;;;;;;;5.20;2.83;;;;;;;14.48;100.00;100905.78;5067261;28;20071;-71
2024/04/06 07:05:31;;;;;;;6.45;2.80;;;;;;;14.51;100.00;100895.34;5069187;28;20076;-71
2024/04/06 07:08:17;;;;;;;3.97;2.65;;;;;;;14.54;100.00;100900.28;5091899;28;20039;-70
2024/04/06 07:11:05;;;;;;;7.40;3.10;;;;;;;14.58;100.00;100893.09;5089683;28;20072;-72
2024/04/06 07:13:52;;;;;;;10.50;3.00;;;;;;;14.62;100.00;100891.38;5087173;28;20071;-72
2024/04/06 07:16:39;;;;;;;5.88;2.85;;;;;;;14.67;100.00;100877.59;5091525;27;21036;-72
2024/04/06 07:19:26;;;;;;;7.72;3.22;;;;;;;14.70;100.00;100877.84;5109268;27;20039;-73
2024/04/06 07:22:13;;;;;;;11.38;3.20;;;;;;;14.75;100.00;100868.75;5060875;28;20084;-71
2024/04/06 07:25:01;;;;;;;7.03;3.05;;;;;;;14.78;100.00;100868.16;5096324;28;20039;-70
2024/04/06 07:27:48;;;;;;;6.18;2.90;;;;;;;14.80;100.00;100860.44;5086839;28;20108;-70
2024/04/06 07:30:35;;;;;;;7.90;2.90;;;;;;;14.81;100.00;100862.06;5060683;28;20052;-71
2024/04/06 07:33:23;;;;;;;5.70;2.80;;;;;;;14.86;100.00;100864.75;5096564;28;20047;-71
2024/04/06 07:36:10;;;;;;;5.20;2.50;;;;;;;14.90;100.00;100857.53;5064855;28;20105;-71
2024/04/06 07:38:56;;;;;;;5.53;2.70;;;;;;;14.93;100.00;100863.56;5053169;28;20093;-70
2024/04/06 07:41:43;;;;;;;8.52;2.80;;;;;;;14.95;100.00;100867.63;5104914;27;20400;-70
2024/04/06 07:44:30;;;;;;;6.82;2.83;;;;;;;14.98;100.00;100868.97;5056414;28;20078;-70
2024/04/06 07:47:18;;;;;;;6.55;2.80;;;;;;;15.01;100.00;100865.63;5098335;28;20044;-71
2024/04/06 07:50:05;;;;;;;6.55;2.97;;;;;;;15.03;100.00;100869.72;5072156;28;20104;-70
2024/04/06 07:52:52;;;;;;;8.13;2.97;;;;;;;15.07;100.00;100864.44;5089252;28;20044;-71
2024/04/06 07:55:39;;;;;;;8.70;3.00;;;;;;;15.12;100.00;100873.41;5064923;28;20488;-71
2024/04/06 07:58:26;;;;;;;6.03;2.80;;;;;;;15.17;100.00;100858.78;5082314;28;20048;-69
2024/04/06 08:01:13;;;;;;;6.88;2.92;;;;;;;15.24;100.00;100863.91;5064388;28;20048;-70
2024/04/06 08:04:00;;;;;;;10.98;3.28;;;;;;;15.28;100.00;100854.78;5056782;28;20048;-70
2024/04/06 08:06:47;;;;;;;9.02;3.13;;;;;;;15.32;100.00;100857.75;5060049;28;20117;-71
2024/04/06 08:09:36;;;;;;;6.13;3.17;;;;;;;15.34;100.00;100842.63;5088531;28;20101;-71
2024/04/06 08:12:24;;;;;;;8.88;3.42;;;;;;;15.38;100.00;100847.50;5101655;28;20519;-70
2024/04/06 08:15:11;;;;;;;7.60;3.22;;;;;;;15.45;100.00;100840.50;5068472;28;20048;-70
2024/04/06 08:17:58;;;;;;;9.43;3.33;;;;;;;15.48;100.00;100836.34;4720031;28;10000594;-72
2024/04/06 08:20:47;;;;;;;7.18;3.00;;;;;;;15.51;100.00;100842.06;5083381;28;20074;-73
2024/04/06 08:23:34;;;;;;;10.65;3.50;;;;;;;15.52;100.00;100848.38;5083807;28;20039;-70
2024/04/06 08:26:21;;;;;;;6.80;2.90;;;;;;;15.57;100.00;100842.78;5082582;28;20036;-71
2024/04/06 08:29:08;;;;;;;8.63;3.28;;;;;;;15.64;100.00;100837.72;5081530;28;20065;-70
2024/04/06 08:31:55;;;;;;;7.70;2.85;;;;;;;15.72;100.00;100837.03;5098549;28;20472;-70
2024/04/06 08:34:42;;;;;;;6.63;2.97;;;;;;;15.82;100.00;100841.53;5083177;28;20413;-70
2024/04/06 08:37:29;;;;;;;6.38;3.13;;;;;;;15.83;100.00;100836.88;5079132;28;20181;-70
2024/04/06 08:40:17;;;;;;;8.52;3.13;;;;;;;15.83;100.00;100831.38;5072750;28;20048;-69
2024/04/06 08:43:08;;;;;;;10.90;3.33;;;;;;;15.87;100.00;100843.38;5098181;28;20062;-71
2024/04/06 08:45:55;;;;;;;9.00;2.90;;;;;;;15.93;100.00;100833.94;5085252;28;20113;-70
2024/04/06 08:48:45;;;;;;;11.00;3.95;;;;;;;15.99;100.00;100827.22;5091601;28;20032;-70
2024/04/06 08:51:32;;;;;;;6.82;2.90;;;;;;;16.02;100.00;100828.53;5070324;28;20178;-69
2024/04/06 08:54:19;;;;;;;7.25;3.10;;;;;;;16.06;100.00;100824.88;5098008;28;20096;-71
2024/04/06 08:57:06;;;;;;;7.82;3.10;;;;;;;16.09;100.00;100829.78;5103028;27;20078;-70
2024/04/06 08:59:53;;;;;;;6.00;2.75;;;;;;;16.13;100.00;100819.78;5095353;28;20501;-70
2024/04/06 09:02:41;;;;;;;11.43;3.30;;;;;;;16.22;100.00;100821.84;5094393;27;20054;-70
2024/04/06 09:05:29;;;;;;;8.13;2.80;;;;;;;16.35;100.00;100816.31;5103691;27;20047;-69
2024/04/06 09:08:16;;;;;;;7.95;2.80;;;;;;;16.38;100.00;100809.41;5104054;27;20043;-69
2024/04/06 09:11:09;;;;;;;9.05;2.90;;;;;;;16.44;100.00;100807.34;5099107;28;20559;-69
2024/04/06 09:14:02;;;;;;;9.68;3.22;;;;;;;16.51;100.00;100802.25;5113604;27;20062;-70
2024/04/06 09:16:49;;;;;;;18.15;6.15;;;;;;;16.54;100.00;100799.69;5103084;27;20400;-68
2024/04/06 09:19:36;;;;;;;6.47;2.85;;;;;;;16.56;100.00;100797.44;5074933;28;20082;-68
2024/04/06 09:22:23;;;;;;;10.30;3.40;;;;;;;16.56;100.00;100785.63;5075221;28;20055;-68
2024/04/06 09:25:10;;;;;;;6.47;2.90;;;;;;;16.61;100.00;100777.25;5083519;28;20067;-69
2024/04/06 09:27:57;;;;;;;9.85;2.70;;;;;;;16.68;100.00;100774.09;5090094;28;20044;-69
2024/04/06 09:30:44;;;;;;;9.05;2.90;;;;;;;16.71;100.00;100778.97;5076852;28;20120;-69
2024/04/06 09:33:32;;;;;;;15.98;3.85;;;;;;;16.78;100.00;100779.34;5083581;28;20039;-69
2024/04/06 09:36:22;;;;;;;7.85;2.90;;;;;;;16.85;100.00;100774.25;5069679;28;20126;-67
2024/04/06 09:39:09;;;;;;;9.85;2.67;;;;;;;16.87;100.00;100766.50;5083941;28;20078;-68
2024/04/06 09:41:57;;;;;;;6.07;2.33;;;;;;;16.93;100.00;100765.28;5066905;28;20056;-68
2024/04/06 09:44:44;;;;;;;6.70;2.58;;;;;;;16.99;100.00;100772.25;5080343;28;20092;-68
2024/04/06 09:47:32;;;;;;;8.05;2.78;;;;;;;17.02;100.00;100757.06;5078151;28;20040;-68
2024/04/06 09:50:20;;;;;;;5.45;2.47;;;;;;;17.09;100.00;100762.13;5060270;28;20508;-69
2024/04/06 09:53:07;;;;;;;5.22;2.30;;;;;;;17.13;100.00;100763.94;5061885;28;20454;-68
2024/04/06 09:55:54;;;;;;;9.15;2.90;;;;;;;17.21;100.00;100754.13;5066358;28;20150;-70
2024/04/06 09:58:48;;;;;;;7.82;2.70;;;;;;;17.33;100.00;100748.03;5046088;28;20049;-67
2024/04/06 10:01:45;;;;;;;6.47;2.58;;;;;;;17.45;100.00;100738.03;5086265;28;20075;-68
2024/04/06 10:04:36;;;;;;;8.93;2.67;;;;;;;17.48;100.00;100720.06;5073187;28;20047;-69
2024/04/06 10:07:28;;;;;;;8.20;2.42;;;;;;;17.54;99.38;100723.50;5066140;28;20059;-68
2024/04/06 10:10:15;;;;;;;5.45;2.22;;;;;;;17.59;97.33;100726.13;5058903;28;20039;-67
2024/04/06 10:13:05;;;;;;;5.70;2.10;;;;;;;17.63;97.08;100725.19;5085353;28;20511;-66
2024/04/06 10:15:52;;;;;;;8.30;2.63;;;;;;;17.70;96.06;100726.66;5075416;28;20052;-67
2024/04/06 10:18:39;;;;;;;6.97;2.25;;;;;;;17.82;93.46;100724.97;5057763;28;20165;-66
2024/04/06 10:21:37;;;;;;;9.02;2.90;;;;;;;17.90;92.43;100726.09;5070390;28;20061;-67
2024/04/06 10:24:27;;;;;;;6.63;2.55;;;;;;;17.93;91.83;100724.66;5057671;28;20044;-67
2024/04/06 10:27:17;;;;;;;6.78;2.40;;;;;;;17.87;91.63;100724.81;5074009;28;20576;-70
2024/04/06 10:30:05;;;;;;;7.18;2.35;;;;;;;17.86;92.53;100725.91;5055897;28;20047;-69
2024/04/06 10:32:53;;;;;;;7.07;2.47;;;;;;;17.82;92.48;100727.72;5071475;28;20093;-70
2024/04/06 10:35:40;;;;;;;10.38;2.58;;;;;;;17.87;90.43;100721.22;5102356;28;20048;-69
2024/04/06 10:38:27;;;;;;;9.98;2.70;;;;;;;17.97;87.04;100709.91;5075787;28;20488;-71
2024/04/06 10:41:15;;;;;;;5.97;2.60;;;;;;;18.02;87.12;100714.47;5081054;28;20047;-71
2024/04/06 10:44:02;;;;;;;6.60;2.38;;;;;;;18.09;85.62;100712.06;5069654;28;20043;-73
2024/04/06 10:46:49;;;;;;;6.78;2.47;;;;;;;18.11;86.45;100712.50;5053524;28;20063;-72
2024/04/06 10:49:36;;;;;;;6.35;2.38;;;;;;;18.19;85.73;100717.25;5064049;28;20093;-75
2024/04/06 10:52:23;;;;;;;6.38;2.53;;;;;;;18.18;86.49;100706.53;5102105;28;20064;-71
2024/04/06 10:55:15;;;;;;;12.18;2.63;;;;;;;18.30;85.18;100704.78;5089111;28;20051;-70
2024/04/06 10:58:02;;;;;;;8.55;2.55;;;;;;;18.45;83.28;100697.16;5089419;28;20126;-70
2024/04/06 11:00:50;;;;;;;6.60;2.58;;;;;;;18.52;82.51;100701.06;5108449;27;20055;-69
2024/04/06 11:03:38;;;;;;;8.90;2.65;;;;;;;18.57;82.54;100694.56;5101096;28;20100;-71
2024/04/06 11:06:25;;;;;;;8.15;2.25;;;;;;;18.52;81.61;100691.97;5073461;28;20040;-71
2024/04/06 11:09:12;;;;;;;4.57;2.03;;;;;;;18.61;80.41;100686.44;5062315;28;20113;-70
2024/04/06 11:12:01;;;;;;;7.07;2.50;;;;;;;18.73;81.72;100675.53;5065876;28;20044;-71
2024/04/06 11:14:52;;;;;;;4.38;2.30;;;;;;;18.80;77.34;100662.09;5086413;28;20511;-73
2024/04/06 11:17:39;;;;;;;8.45;2.80;;;;;;;18.72;85.73;100652.66;5071879;28;20468;-66
2024/04/06 11:20:26;;;;;;;6.47;2.15;;;;;;;18.73;80.46;100653.47;5066981;28;20092;-72
2024/04/06 11:23:19;;;;;;;10.23;3.75;;;;;;;18.74;87.42;100652.34;5094585;28;20043;-67
2024/04/06 11:26:06;;;;;;;4.82;2.05;;;;;;;18.79;79.41;100662.44;5072750;28;20046;-68
2024/04/06 11:28:53;;;;;;;3.65;2.08;;;;;;;18.85;77.78;100666.63;5055147;28;20089;-65
2024/04/06 11:31:40;;;;;;;7.35;2.33;;;;;;;18.98;77.03;100671.16;5070392;27;20574;-66
2024/04/06 11:34:27;;;;;;;9.55;2.97;;;;;;;18.84;85.28;100657.53;5094036;28;20126;-67
2024/04/06 11:37:16;;;;;;;4.50;2.13;;;;;;;18.91;79.16;100668.09;5080562;28;20044;-68
2024/04/06 11:40:04;;;;;;;5.63;2.35;;;;;;;18.96;91.55;100656.06;5064020;28;20051;-66
2024/04/06 11:42:51;;;;;;;3.00;2.30;;;;;;;18.92;82.89;100655.91;5057957;28;20525;-70
2024/04/06 11:45:38;;;;;;;3.65;2.10;;;;;;;19.07;75.54;100662.84;5071535;28;20116;-68
2024/04/06 11:48:25;;;;;;;6.50;2.35;;;;;;;19.09;80.21;100661.38;5085624;28;20411;-67
2024/04/06 11:51:12;;;;;;;5.18;2.25;;;;;;;19.19;75.09;100656.63;5085039;28;20415;-68
2024/04/06 11:53:59;;;;;;;6.93;2.40;;;;;;;19.33;72.75;100655.25;5066322;28;20055;-68
2024/04/06 11:56:46;;;;;;;6.25;2.67;;;;;;;19.28;84.46;100646.38;5083013;28;20044;-67
2024/04/06 11:59:33;;;;;;;3.58;1.90;;;;;;;19.36;73.32;100634.44;5084300;27;20054;-66
2024/04/06 12:02:20;;;;;;;4.57;2.25;;;;;;;19.48;73.48;100629.06;5083211;28;20122;-65
2024/04/06 12:05:07;;;;;;;8.32;2.53;;;;;;;19.50;71.96;100615.69;5091023;28;20445;-65
2024/04/06 12:07:55;;;;;;;5.68;2.30;;;;;;;19.69;69.86;100617.25;5084337;28;20415;-67
2024/04/06 12:10:42;;;;;;;6.00;2.08;;;;;;;19.81;73.27;100613.75;5077423;28;20511;-65
2024/04/06 12:13:29;;;;;;;7.18;2.38;;;;;;;19.78;69.82;100615.25;5078362;28;20062;-66
2024/04/06 12:16:16;;;;;;;5.55;2.30;;;;;;;19.93;68.30;100613.84;5074752;28;20044;-64
2024/04/06 12:19:03;;;;;;;6.07;2.20;;;;;;;19.96;73.32;100605.69;5062442;28;20051;-64
2024/04/06 12:21:50;;;;;;;4.50;2.08;;;;;;;19.89;70.33;100608.19;5082352;28;20052;-64
2024/04/06 12:24:40;;;;;;;6.28;1.90;;;;;;;19.94;69.61;100616.28;5084225;28;20445;-63
2024/04/06 12:27:27;;;;;;;7.10;2.00;;;;;;;19.93;72.81;100622.94;5076860;28;20450;-63
2024/04/06 12:30:14;;;;;;;20.02;2.50;;;;;;;19.95;71.85;100614.31;5070349;28;20458;-64
2024/04/06 12:33:01;;;;;;;9.20;2.60;;;;;;;19.89;74.36;100610.94;5071497;28;20050;-65
2024/04/06 12:35:50;;;;;;;7.03;2.10;;;;;;;19.96;71.26;100616.75;5070145;28;20059;-65
2024/04/06 12:38:37;;;;;;;7.53;2.75;;;;;;;19.76;81.16;100629.41;5070537;28;20086;-65
2024/04/06 12:41:25;;;;;;;4.70;2.25;;;;;;;19.81;75.47;100647.75;5069804;27;20071;-68
2024/04/06 12:44:12;;;;;;;4.20;2.40;;;;;;;19.96;72.51;100649.94;5083589;28;20044;-67
2024/04/06 12:47:00;;;;;;;4.93;2.40;;;;;;;19.95;79.49;100658.56;5089194;28;20093;-67
2024/04/06 12:49:47;;;;;;;5.80;2.13;;;;;;;19.93;73.34;100667.19;5097937;28;20079;-65
2024/04/06 12:52:34;;;;;;;6.40;2.45;;;;;;;19.90;75.47;100676.16;5055258;28;20113;-68